KMWM

Windom Municipal Airport

Windom, Minnesota, USA
METAR KMWM 150315Z AUTO 33005KT 7SM SCT011 SCT041 22/18 A2994 RMK AO2
Observed Flight Rules
Aug-15 @ 03:15 UTC (20 minutes ago) Visual Flight Rules
Wind Visibility Clouds
330° at 5 knots 7 miles
  • Scattered at 1,100' AGL
  • Scattered at 4,100' AGL
Temperatures Readings
Current 22°C / 72°F
Dewpoint 18°C / 64°F
Humidity 78%
Altimeter 29.94" Hg
Pressure 1014 hPa
Elevation 430
METAR KMWM 150315Z AUTO 33005KT 7SM SCT011 SCT041 22/18 A2994 RMK AO2
Observed Flight Rules
Aug-15 @ 03:15 UTC
(20 minutes ago)
VFR
Wind Visibility
330° at 5 knots 7 miles
Clouds
  • Scattered at 1,100' AGL
  • Scattered at 4,100' AGL
Temperature Dewpoint
22°C / 72°F 18°C / 64°F
Humidity Altimeter Pressure
78% 29.94" Hg 1014 hPa